sensor_id;sensor_type;location;lat;lon;timestamp;P1;durP1;ratioP1;P2;durP2;ratioP2
75716;SDS011;64333;50.138;14.332;2024-02-26T00:01:36;140.15;;;39.30;;
75716;SDS011;64333;50.138;14.332;2024-02-26T00:04:01;100.07;;;32.75;;
75716;SDS011;64333;50.138;14.332;2024-02-26T00:06:28;122.97;;;34.97;;
75716;SDS011;64333;50.138;14.332;2024-02-26T00:08:56;107.75;;;36.88;;
75716;SDS011;64333;50.138;14.332;2024-02-26T00:11:22;87.57;;;33.13;;
75716;SDS011;64333;50.138;14.332;2024-02-26T00:13:47;94.97;;;35.20;;
75716;SDS011;64333;50.138;14.332;2024-02-26T00:16:13;83.32;;;31.98;;
75716;SDS011;64333;50.138;14.332;2024-02-26T00:18:38;87.45;;;33.05;;
75716;SDS011;64333;50.138;14.332;2024-02-26T00:21:03;80.00;;;31.27;;
75716;SDS011;64333;50.138;14.332;2024-02-26T00:23:29;79.07;;;32.97;;
75716;SDS011;64333;50.138;14.332;2024-02-26T00:25:54;89.60;;;34.13;;
75716;SDS011;64333;50.138;14.332;2024-02-26T00:28:20;77.00;;;31.70;;
75716;SDS011;64333;50.138;14.332;2024-02-26T00:30:46;77.07;;;31.83;;
75716;SDS011;64333;50.138;14.332;2024-02-26T00:33:12;79.57;;;30.75;;
75716;SDS011;64333;50.138;14.332;2024-02-26T00:35:37;86.22;;;33.88;;
75716;SDS011;64333;50.138;14.332;2024-02-26T00:38:03;83.72;;;35.15;;
75716;SDS011;64333;50.138;14.332;2024-02-26T00:40:29;84.85;;;32.45;;
75716;SDS011;64333;50.138;14.332;2024-02-26T00:42:54;79.43;;;32.35;;
75716;SDS011;64333;50.138;14.332;2024-02-26T00:45:20;88.55;;;35.42;;
75716;SDS011;64333;50.138;14.332;2024-02-26T00:47:45;76.57;;;32.45;;
75716;SDS011;64333;50.138;14.332;2024-02-26T00:50:12;76.15;;;32.38;;
75716;SDS011;64333;50.138;14.332;2024-02-26T00:52:38;89.75;;;37.83;;
75716;SDS011;64333;50.138;14.332;2024-02-26T00:55:03;83.95;;;35.60;;
75716;SDS011;64333;50.138;14.332;2024-02-26T00:57:29;100.53;;;37.92;;
75716;SDS011;64333;50.138;14.332;2024-02-26T00:59:54;91.50;;;37.60;;
75716;SDS011;64333;50.138;14.332;2024-02-26T01:02:21;87.05;;;36.40;;
75716;SDS011;64333;50.138;14.332;2024-02-26T01:04:47;94.05;;;36.35;;
75716;SDS011;64333;50.138;14.332;2024-02-26T01:07:12;91.88;;;34.92;;
75716;SDS011;64333;50.138;14.332;2024-02-26T01:09:37;89.78;;;34.63;;
75716;SDS011;64333;50.138;14.332;2024-02-26T01:12:03;74.20;;;32.45;;
75716;SDS011;64333;50.138;14.332;2024-02-26T01:14:28;75.68;;;33.42;;
75716;SDS011;64333;50.138;14.332;2024-02-26T01:16:54;80.45;;;36.70;;
75716;SDS011;64333;50.138;14.332;2024-02-26T01:19:19;73.57;;;32.40;;
75716;SDS011;64333;50.138;14.332;2024-02-26T01:21:44;82.15;;;34.80;;
75716;SDS011;64333;50.138;14.332;2024-02-26T01:24:10;70.72;;;34.50;;
75716;SDS011;64333;50.138;14.332;2024-02-26T01:26:35;74.72;;;34.25;;
75716;SDS011;64333;50.138;14.332;2024-02-26T01:29:01;99.10;;;38.05;;
75716;SDS011;64333;50.138;14.332;2024-02-26T01:31:26;78.90;;;33.90;;
75716;SDS011;64333;50.138;14.332;2024-02-26T01:33:51;68.43;;;31.83;;
75716;SDS011;64333;50.138;14.332;2024-02-26T01:36:17;88.35;;;38.05;;
75716;SDS011;64333;50.138;14.332;2024-02-26T01:38:43;100.20;;;44.88;;
75716;SDS011;64333;50.138;14.332;2024-02-26T01:41:08;59.60;;;26.15;;
75716;SDS011;64333;50.138;14.332;2024-02-26T01:43:33;47.80;;;22.98;;
75716;SDS011;64333;50.138;14.332;2024-02-26T01:45:59;56.92;;;25.70;;
75716;SDS011;64333;50.138;14.332;2024-02-26T01:48:24;55.40;;;26.52;;
75716;SDS011;64333;50.138;14.332;2024-02-26T01:50:50;81.38;;;31.83;;
75716;SDS011;64333;50.138;14.332;2024-02-26T01:53:16;65.82;;;29.30;;
75716;SDS011;64333;50.138;14.332;2024-02-26T01:55:43;88.57;;;35.33;;
75716;SDS011;64333;50.138;14.332;2024-02-26T01:58:09;111.25;;;39.40;;
75716;SDS011;64333;50.138;14.332;2024-02-26T02:00:35;87.97;;;35.75;;
75716;SDS011;64333;50.138;14.332;2024-02-26T02:03:01;102.18;;;34.90;;
75716;SDS011;64333;50.138;14.332;2024-02-26T02:05:28;81.93;;;33.08;;
75716;SDS011;64333;50.138;14.332;2024-02-26T02:07:54;70.05;;;30.05;;
75716;SDS011;64333;50.138;14.332;2024-02-26T02:10:20;76.40;;;30.17;;
75716;SDS011;64333;50.138;14.332;2024-02-26T02:12:48;69.43;;;30.27;;
75716;SDS011;64333;50.138;14.332;2024-02-26T02:15:14;76.13;;;29.58;;
75716;SDS011;64333;50.138;14.332;2024-02-26T02:17:39;97.97;;;33.70;;
75716;SDS011;64333;50.138;14.332;2024-02-26T02:20:09;94.18;;;33.08;;
75716;SDS011;64333;50.138;14.332;2024-02-26T02:22:40;100.28;;;32.95;;
75716;SDS011;64333;50.138;14.332;2024-02-26T02:25:05;88.57;;;33.60;;
75716;SDS011;64333;50.138;14.332;2024-02-26T02:27:31;86.60;;;32.45;;
75716;SDS011;64333;50.138;14.332;2024-02-26T02:29:56;88.97;;;33.55;;
75716;SDS011;64333;50.138;14.332;2024-02-26T02:32:21;93.47;;;34.17;;
75716;SDS011;64333;50.138;14.332;2024-02-26T02:34:49;90.13;;;30.83;;
75716;SDS011;64333;50.138;14.332;2024-02-26T02:37:14;78.35;;;30.95;;
75716;SDS011;64333;50.138;14.332;2024-02-26T02:39:39;75.85;;;31.00;;
75716;SDS011;64333;50.138;14.332;2024-02-26T02:42:07;64.68;;;29.45;;
75716;SDS011;64333;50.138;14.332;2024-02-26T02:44:32;65.60;;;27.60;;
75716;SDS011;64333;50.138;14.332;2024-02-26T02:46:58;57.72;;;27.27;;
75716;SDS011;64333;50.138;14.332;2024-02-26T02:49:23;64.47;;;26.65;;
75716;SDS011;64333;50.138;14.332;2024-02-26T02:51:48;65.20;;;27.55;;
75716;SDS011;64333;50.138;14.332;2024-02-26T02:54:14;73.57;;;28.10;;
75716;SDS011;64333;50.138;14.332;2024-02-26T02:56:39;64.85;;;27.27;;
75716;SDS011;64333;50.138;14.332;2024-02-26T02:59:04;60.97;;;26.38;;
75716;SDS011;64333;50.138;14.332;2024-02-26T03:01:30;64.57;;;27.90;;
75716;SDS011;64333;50.138;14.332;2024-02-26T03:03:55;74.43;;;30.33;;
75716;SDS011;64333;50.138;14.332;2024-02-26T03:06:20;82.03;;;35.15;;
75716;SDS011;64333;50.138;14.332;2024-02-26T03:08:46;87.07;;;34.33;;
75716;SDS011;64333;50.138;14.332;2024-02-26T03:11:14;63.53;;;28.42;;
75716;SDS011;64333;50.138;14.332;2024-02-26T03:13:40;58.85;;;26.17;;
75716;SDS011;64333;50.138;14.332;2024-02-26T03:16:06;58.78;;;25.50;;
75716;SDS011;64333;50.138;14.332;2024-02-26T03:18:31;77.38;;;32.75;;
75716;SDS011;64333;50.138;14.332;2024-02-26T03:20:57;63.80;;;29.05;;
75716;SDS011;64333;50.138;14.332;2024-02-26T03:23:22;63.30;;;27.60;;
75716;SDS011;64333;50.138;14.332;2024-02-26T03:25:47;69.57;;;29.30;;
75716;SDS011;64333;50.138;14.332;2024-02-26T03:28:13;64.13;;;28.70;;
75716;SDS011;64333;50.138;14.332;2024-02-26T03:30:38;65.68;;;28.08;;
75716;SDS011;64333;50.138;14.332;2024-02-26T03:33:04;56.28;;;25.98;;
75716;SDS011;64333;50.138;14.332;2024-02-26T03:35:29;57.08;;;26.10;;
75716;SDS011;64333;50.138;14.332;2024-02-26T03:37:55;59.38;;;26.10;;
75716;SDS011;64333;50.138;14.332;2024-02-26T03:40:20;54.08;;;24.85;;
75716;SDS011;64333;50.138;14.332;2024-02-26T03:42:45;53.53;;;24.30;;
75716;SDS011;64333;50.138;14.332;2024-02-26T03:45:11;57.50;;;25.75;;
75716;SDS011;64333;50.138;14.332;2024-02-26T03:47:37;51.30;;;23.52;;
75716;SDS011;64333;50.138;14.332;2024-02-26T03:50:05;55.90;;;24.17;;
75716;SDS011;64333;50.138;14.332;2024-02-26T03:52:31;57.75;;;24.27;;
75716;SDS011;64333;50.138;14.332;2024-02-26T03:54:57;49.47;;;23.13;;
75716;SDS011;64333;50.138;14.332;2024-02-26T03:57:22;64.32;;;24.85;;
75716;SDS011;64333;50.138;14.332;2024-02-26T03:59:47;61.08;;;25.83;;
75716;SDS011;64333;50.138;14.332;2024-02-26T04:02:12;52.65;;;25.60;;
75716;SDS011;64333;50.138;14.332;2024-02-26T04:04:38;58.00;;;26.13;;
75716;SDS011;64333;50.138;14.332;2024-02-26T04:07:03;60.72;;;26.05;;
75716;SDS011;64333;50.138;14.332;2024-02-26T04:09:30;57.40;;;26.42;;
75716;SDS011;64333;50.138;14.332;2024-02-26T04:11:56;54.92;;;24.90;;
75716;SDS011;64333;50.138;14.332;2024-02-26T04:14:21;54.22;;;25.52;;
75716;SDS011;64333;50.138;14.332;2024-02-26T04:16:47;67.95;;;27.00;;
75716;SDS011;64333;50.138;14.332;2024-02-26T04:19:16;53.10;;;25.52;;
75716;SDS011;64333;50.138;14.332;2024-02-26T04:21:41;55.67;;;25.70;;
75716;SDS011;64333;50.138;14.332;2024-02-26T04:24:07;58.53;;;25.80;;
75716;SDS011;64333;50.138;14.332;2024-02-26T04:26:32;66.35;;;27.05;;
75716;SDS011;64333;50.138;14.332;2024-02-26T04:28:57;57.45;;;25.33;;
75716;SDS011;64333;50.138;14.332;2024-02-26T04:31:23;59.15;;;26.30;;
75716;SDS011;64333;50.138;14.332;2024-02-26T04:33:48;54.28;;;26.50;;
75716;SDS011;64333;50.138;14.332;2024-02-26T04:36:14;51.80;;;25.90;;
75716;SDS011;64333;50.138;14.332;2024-02-26T04:38:43;52.30;;;26.02;;
75716;SDS011;64333;50.138;14.332;2024-02-26T04:41:08;50.65;;;24.90;;
75716;SDS011;64333;50.138;14.332;2024-02-26T04:43:34;54.50;;;25.05;;
75716;SDS011;64333;50.138;14.332;2024-02-26T04:46:06;56.20;;;25.88;;
75716;SDS011;64333;50.138;14.332;2024-02-26T04:48:34;63.22;;;26.67;;
75716;SDS011;64333;50.138;14.332;2024-02-26T04:51:01;58.05;;;26.17;;
75716;SDS011;64333;50.138;14.332;2024-02-26T04:53:27;56.47;;;25.67;;
75716;SDS011;64333;50.138;14.332;2024-02-26T04:55:52;63.63;;;27.20;;
75716;SDS011;64333;50.138;14.332;2024-02-26T04:58:18;65.70;;;27.67;;
75716;SDS011;64333;50.138;14.332;2024-02-26T05:00:44;65.93;;;27.80;;
75716;SDS011;64333;50.138;14.332;2024-02-26T05:03:09;57.38;;;28.80;;
75716;SDS011;64333;50.138;14.332;2024-02-26T05:05:40;65.75;;;27.60;;
75716;SDS011;64333;50.138;14.332;2024-02-26T05:08:06;63.33;;;26.85;;
75716;SDS011;64333;50.138;14.332;2024-02-26T05:10:32;66.75;;;28.88;;
75716;SDS011;64333;50.138;14.332;2024-02-26T05:12:58;66.28;;;28.00;;
75716;SDS011;64333;50.138;14.332;2024-02-26T05:15:25;55.28;;;26.40;;
75716;SDS011;64333;50.138;14.332;2024-02-26T05:17:50;69.88;;;29.13;;
75716;SDS011;64333;50.138;14.332;2024-02-26T05:20:15;71.00;;;30.15;;
75716;SDS011;64333;50.138;14.332;2024-02-26T05:22:41;70.15;;;28.88;;
75716;SDS011;64333;50.138;14.332;2024-02-26T05:25:07;75.15;;;30.15;;
75716;SDS011;64333;50.138;14.332;2024-02-26T05:27:32;68.47;;;29.40;;
75716;SDS011;64333;50.138;14.332;2024-02-26T05:29:58;76.10;;;29.65;;
75716;SDS011;64333;50.138;14.332;2024-02-26T05:32:23;71.72;;;30.15;;
75716;SDS011;64333;50.138;14.332;2024-02-26T05:34:48;78.53;;;29.23;;
75716;SDS011;64333;50.138;14.332;2024-02-26T05:37:14;61.22;;;28.65;;
75716;SDS011;64333;50.138;14.332;2024-02-26T05:39:39;66.78;;;29.77;;
75716;SDS011;64333;50.138;14.332;2024-02-26T05:42:04;76.50;;;31.77;;
75716;SDS011;64333;50.138;14.332;2024-02-26T05:44:30;85.20;;;31.25;;
75716;SDS011;64333;50.138;14.332;2024-02-26T05:46:55;75.55;;;29.88;;
75716;SDS011;64333;50.138;14.332;2024-02-26T05:49:21;71.85;;;28.42;;
75716;SDS011;64333;50.138;14.332;2024-02-26T05:51:47;66.85;;;28.17;;
75716;SDS011;64333;50.138;14.332;2024-02-26T05:54:13;74.15;;;28.63;;
75716;SDS011;64333;50.138;14.332;2024-02-26T05:56:38;67.70;;;27.23;;
75716;SDS011;64333;50.138;14.332;2024-02-26T05:59:04;66.43;;;27.98;;
75716;SDS011;64333;50.138;14.332;2024-02-26T06:01:30;73.90;;;29.52;;
75716;SDS011;64333;50.138;14.332;2024-02-26T06:03:55;72.38;;;29.77;;
75716;SDS011;64333;50.138;14.332;2024-02-26T06:06:21;63.75;;;26.55;;
75716;SDS011;64333;50.138;14.332;2024-02-26T06:08:48;62.80;;;26.20;;
75716;SDS011;64333;50.138;14.332;2024-02-26T06:11:14;88.60;;;36.35;;
75716;SDS011;64333;50.138;14.332;2024-02-26T06:13:39;65.22;;;27.40;;
75716;SDS011;64333;50.138;14.332;2024-02-26T06:16:05;61.60;;;27.30;;
75716;SDS011;64333;50.138;14.332;2024-02-26T06:18:30;54.80;;;26.08;;
75716;SDS011;64333;50.138;14.332;2024-02-26T06:20:56;67.28;;;25.80;;
75716;SDS011;64333;50.138;14.332;2024-02-26T06:23:22;63.60;;;27.05;;
75716;SDS011;64333;50.138;14.332;2024-02-26T06:25:48;74.05;;;28.48;;
75716;SDS011;64333;50.138;14.332;2024-02-26T06:28:13;70.53;;;24.73;;
75716;SDS011;64333;50.138;14.332;2024-02-26T06:30:38;61.50;;;26.65;;
75716;SDS011;64333;50.138;14.332;2024-02-26T06:33:04;57.55;;;23.67;;
75716;SDS011;64333;50.138;14.332;2024-02-26T06:35:29;73.72;;;26.92;;
75716;SDS011;64333;50.138;14.332;2024-02-26T06:37:55;64.10;;;22.33;;
75716;SDS011;64333;50.138;14.332;2024-02-26T06:40:21;62.35;;;22.25;;
75716;SDS011;64333;50.138;14.332;2024-02-26T06:42:46;57.33;;;20.90;;
75716;SDS011;64333;50.138;14.332;2024-02-26T06:45:11;56.85;;;22.40;;
75716;SDS011;64333;50.138;14.332;2024-02-26T06:47:37;63.83;;;21.25;;
75716;SDS011;64333;50.138;14.332;2024-02-26T06:50:02;45.08;;;22.20;;
75716;SDS011;64333;50.138;14.332;2024-02-26T06:52:28;70.75;;;22.48;;
75716;SDS011;64333;50.138;14.332;2024-02-26T06:54:53;54.00;;;23.27;;
75716;SDS011;64333;50.138;14.332;2024-02-26T06:57:19;72.82;;;23.70;;
75716;SDS011;64333;50.138;14.332;2024-02-26T06:59:46;46.55;;;22.42;;
75716;SDS011;64333;50.138;14.332;2024-02-26T07:02:15;64.75;;;23.35;;
75716;SDS011;64333;50.138;14.332;2024-02-26T07:04:41;61.30;;;22.10;;
75716;SDS011;64333;50.138;14.332;2024-02-26T07:07:07;62.08;;;21.70;;
75716;SDS011;64333;50.138;14.332;2024-02-26T07:09:33;55.75;;;21.13;;
75716;SDS011;64333;50.138;14.332;2024-02-26T07:11:58;50.38;;;20.52;;
75716;SDS011;64333;50.138;14.332;2024-02-26T07:14:23;59.17;;;19.60;;
75716;SDS011;64333;50.138;14.332;2024-02-26T07:16:49;49.03;;;20.30;;
75716;SDS011;64333;50.138;14.332;2024-02-26T07:19:15;52.40;;;19.45;;
75716;SDS011;64333;50.138;14.332;2024-02-26T07:21:41;54.28;;;22.55;;
75716;SDS011;64333;50.138;14.332;2024-02-26T07:24:06;63.45;;;22.23;;
75716;SDS011;64333;50.138;14.332;2024-02-26T07:26:31;43.00;;;18.98;;
75716;SDS011;64333;50.138;14.332;2024-02-26T07:28:57;60.47;;;19.33;;
75716;SDS011;64333;50.138;14.332;2024-02-26T07:31:23;57.03;;;20.08;;
75716;SDS011;64333;50.138;14.332;2024-02-26T07:33:48;54.88;;;19.75;;
75716;SDS011;64333;50.138;14.332;2024-02-26T07:36:13;54.40;;;21.27;;
75716;SDS011;64333;50.138;14.332;2024-02-26T07:38:39;42.13;;;17.88;;
75716;SDS011;64333;50.138;14.332;2024-02-26T07:41:04;54.08;;;19.42;;
75716;SDS011;64333;50.138;14.332;2024-02-26T07:43:29;58.85;;;25.83;;
75716;SDS011;64333;50.138;14.332;2024-02-26T07:45:55;49.28;;;21.40;;
75716;SDS011;64333;50.138;14.332;2024-02-26T07:48:20;54.92;;;20.35;;
75716;SDS011;64333;50.138;14.332;2024-02-26T07:50:45;45.00;;;18.83;;
75716;SDS011;64333;50.138;14.332;2024-02-26T07:53:11;45.70;;;19.70;;
75716;SDS011;64333;50.138;14.332;2024-02-26T07:55:36;53.45;;;20.80;;
75716;SDS011;64333;50.138;14.332;2024-02-26T07:58:02;45.28;;;20.15;;
75716;SDS011;64333;50.138;14.332;2024-02-26T08:00:27;61.38;;;19.42;;
75716;SDS011;64333;50.138;14.332;2024-02-26T08:02:53;68.38;;;25.40;;
75716;SDS011;64333;50.138;14.332;2024-02-26T08:05:18;54.78;;;21.58;;
75716;SDS011;64333;50.138;14.332;2024-02-26T08:07:44;51.60;;;20.67;;
75716;SDS011;64333;50.138;14.332;2024-02-26T08:10:09;120.80;;;55.50;;
75716;SDS011;64333;50.138;14.332;2024-02-26T08:12:36;65.07;;;21.23;;
75716;SDS011;64333;50.138;14.332;2024-02-26T08:15:01;60.92;;;20.90;;
75716;SDS011;64333;50.138;14.332;2024-02-26T08:17:27;58.30;;;21.60;;
75716;SDS011;64333;50.138;14.332;2024-02-26T08:19:52;47.35;;;23.05;;
75716;SDS011;64333;50.138;14.332;2024-02-26T08:22:18;50.45;;;19.08;;
75716;SDS011;64333;50.138;14.332;2024-02-26T08:24:44;44.15;;;18.15;;
75716;SDS011;64333;50.138;14.332;2024-02-26T08:27:09;46.88;;;19.10;;
75716;SDS011;64333;50.138;14.332;2024-02-26T08:29:35;52.13;;;21.20;;
75716;SDS011;64333;50.138;14.332;2024-02-26T08:32:00;40.72;;;19.45;;
75716;SDS011;64333;50.138;14.332;2024-02-26T08:34:26;43.10;;;20.77;;
75716;SDS011;64333;50.138;14.332;2024-02-26T08:36:51;45.97;;;22.23;;
75716;SDS011;64333;50.138;14.332;2024-02-26T08:39:17;41.80;;;19.60;;
75716;SDS011;64333;50.138;14.332;2024-02-26T08:41:46;47.70;;;22.05;;
75716;SDS011;64333;50.138;14.332;2024-02-26T08:44:11;41.67;;;17.60;;
75716;SDS011;64333;50.138;14.332;2024-02-26T08:46:36;45.03;;;21.88;;
75716;SDS011;64333;50.138;14.332;2024-02-26T08:49:02;36.72;;;17.02;;
75716;SDS011;64333;50.138;14.332;2024-02-26T08:51:28;36.47;;;18.98;;
75716;SDS011;64333;50.138;14.332;2024-02-26T08:53:53;38.42;;;20.05;;
75716;SDS011;64333;50.138;14.332;2024-02-26T08:56:19;42.55;;;17.00;;
75716;SDS011;64333;50.138;14.332;2024-02-26T08:58:46;34.13;;;16.70;;
75716;SDS011;64333;50.138;14.332;2024-02-26T09:01:13;39.70;;;17.75;;
75716;SDS011;64333;50.138;14.332;2024-02-26T09:03:39;37.13;;;17.83;;
75716;SDS011;64333;50.138;14.332;2024-02-26T09:06:05;32.65;;;16.30;;
75716;SDS011;64333;50.138;14.332;2024-02-26T09:08:31;32.47;;;16.73;;
75716;SDS011;64333;50.138;14.332;2024-02-26T09:10:57;29.17;;;16.90;;
75716;SDS011;64333;50.138;14.332;2024-02-26T09:13:22;29.88;;;16.25;;
75716;SDS011;64333;50.138;14.332;2024-02-26T09:15:48;32.35;;;16.98;;
75716;SDS011;64333;50.138;14.332;2024-02-26T09:18:14;33.38;;;15.50;;
75716;SDS011;64333;50.138;14.332;2024-02-26T09:20:40;33.13;;;17.15;;
75716;SDS011;64333;50.138;14.332;2024-02-26T09:23:05;27.83;;;14.32;;
75716;SDS011;64333;50.138;14.332;2024-02-26T09:25:30;29.73;;;14.82;;
75716;SDS011;64333;50.138;14.332;2024-02-26T09:27:56;26.42;;;13.27;;
75716;SDS011;64333;50.138;14.332;2024-02-26T09:30:21;29.58;;;14.05;;
75716;SDS011;64333;50.138;14.332;2024-02-26T09:32:47;36.42;;;17.10;;
75716;SDS011;64333;50.138;14.332;2024-02-26T09:35:13;35.72;;;17.35;;
75716;SDS011;64333;50.138;14.332;2024-02-26T09:37:38;31.50;;;17.27;;
75716;SDS011;64333;50.138;14.332;2024-02-26T09:40:04;34.85;;;15.88;;
75716;SDS011;64333;50.138;14.332;2024-02-26T09:42:31;35.25;;;17.67;;
75716;SDS011;64333;50.138;14.332;2024-02-26T09:45:00;38.08;;;17.98;;
75716;SDS011;64333;50.138;14.332;2024-02-26T09:47:30;28.98;;;16.92;;
75716;SDS011;64333;50.138;14.332;2024-02-26T09:49:56;34.22;;;16.05;;
75716;SDS011;64333;50.138;14.332;2024-02-26T09:52:24;30.30;;;16.08;;
75716;SDS011;64333;50.138;14.332;2024-02-26T09:54:51;32.38;;;16.85;;
75716;SDS011;64333;50.138;14.332;2024-02-26T09:57:17;33.85;;;15.98;;
75716;SDS011;64333;50.138;14.332;2024-02-26T09:59:43;28.70;;;14.18;;
75716;SDS011;64333;50.138;14.332;2024-02-26T10:02:11;31.88;;;15.98;;
75716;SDS011;64333;50.138;14.332;2024-02-26T10:04:38;32.05;;;15.00;;
75716;SDS011;64333;50.138;14.332;2024-02-26T10:07:05;28.65;;;15.00;;
75716;SDS011;64333;50.138;14.332;2024-02-26T10:09:34;26.15;;;13.05;;
75716;SDS011;64333;50.138;14.332;2024-02-26T10:12:00;24.13;;;14.82;;
75716;SDS011;64333;50.138;14.332;2024-02-26T10:14:25;27.60;;;14.88;;
75716;SDS011;64333;50.138;14.332;2024-02-26T10:16:51;28.47;;;14.40;;
75716;SDS011;64333;50.138;14.332;2024-02-26T10:19:26;29.60;;;15.15;;
75716;SDS011;64333;50.138;14.332;2024-02-26T10:21:56;28.73;;;14.77;;
75716;SDS011;64333;50.138;14.332;2024-02-26T10:24:23;26.27;;;14.52;;
75716;SDS011;64333;50.138;14.332;2024-02-26T10:26:48;26.88;;;14.27;;
75716;SDS011;64333;50.138;14.332;2024-02-26T10:29:14;28.95;;;16.52;;
75716;SDS011;64333;50.138;14.332;2024-02-26T10:31:41;27.23;;;14.32;;
75716;SDS011;64333;50.138;14.332;2024-02-26T10:34:07;24.27;;;14.32;;
75716;SDS011;64333;50.138;14.332;2024-02-26T10:36:33;25.70;;;14.18;;
75716;SDS011;64333;50.138;14.332;2024-02-26T10:39:01;25.45;;;13.90;;
75716;SDS011;64333;50.138;14.332;2024-02-26T10:41:30;29.83;;;14.82;;
75716;SDS011;64333;50.138;14.332;2024-02-26T10:43:55;23.83;;;13.10;;
75716;SDS011;64333;50.138;14.332;2024-02-26T10:46:20;27.92;;;14.13;;
75716;SDS011;64333;50.138;14.332;2024-02-26T10:48:50;25.65;;;14.27;;
75716;SDS011;64333;50.138;14.332;2024-02-26T10:51:16;26.15;;;14.77;;
75716;SDS011;64333;50.138;14.332;2024-02-26T10:53:45;25.25;;;13.63;;
75716;SDS011;64333;50.138;14.332;2024-02-26T10:56:14;24.73;;;14.43;;
75716;SDS011;64333;50.138;14.332;2024-02-26T10:58:43;27.27;;;13.82;;
75716;SDS011;64333;50.138;14.332;2024-02-26T11:01:11;25.02;;;13.02;;
75716;SDS011;64333;50.138;14.332;2024-02-26T11:03:37;23.52;;;13.85;;
75716;SDS011;64333;50.138;14.332;2024-02-26T11:06:04;27.20;;;14.30;;
75716;SDS011;64333;50.138;14.332;2024-02-26T11:08:30;27.25;;;14.13;;
75716;SDS011;64333;50.138;14.332;2024-02-26T11:10:57;28.20;;;14.13;;
75716;SDS011;64333;50.138;14.332;2024-02-26T11:13:23;25.38;;;12.57;;
75716;SDS011;64333;50.138;14.332;2024-02-26T11:15:52;23.83;;;13.60;;
75716;SDS011;64333;50.138;14.332;2024-02-26T11:18:19;23.73;;;13.38;;
75716;SDS011;64333;50.138;14.332;2024-02-26T11:20:48;23.50;;;15.25;;
75716;SDS011;64333;50.138;14.332;2024-02-26T11:23:17;22.60;;;12.43;;
75716;SDS011;64333;50.138;14.332;2024-02-26T11:25:42;24.40;;;13.43;;
75716;SDS011;64333;50.138;14.332;2024-02-26T11:28:12;22.77;;;13.68;;
75716;SDS011;64333;50.138;14.332;2024-02-26T11:30:43;23.63;;;13.05;;
75716;SDS011;64333;50.138;14.332;2024-02-26T11:33:11;24.35;;;13.32;;
75716;SDS011;64333;50.138;14.332;2024-02-26T11:35:37;23.85;;;13.45;;
75716;SDS011;64333;50.138;14.332;2024-02-26T11:38:03;21.73;;;12.38;;
75716;SDS011;64333;50.138;14.332;2024-02-26T11:40:31;21.52;;;13.00;;
75716;SDS011;64333;50.138;14.332;2024-02-26T11:42:57;23.30;;;12.88;;
75716;SDS011;64333;50.138;14.332;2024-02-26T11:48:25;25.02;;;14.23;;
75716;SDS011;64333;50.138;14.332;2024-02-26T11:50:54;24.23;;;13.95;;
75716;SDS011;64333;50.138;14.332;2024-02-26T11:53:27;28.13;;;14.82;;
75716;SDS011;64333;50.138;14.332;2024-02-26T11:59:09;24.73;;;13.45;;
75716;SDS011;64333;50.138;14.332;2024-02-26T12:04:19;24.40;;;13.18;;
75716;SDS011;64333;50.138;14.332;2024-02-26T12:06:49;26.23;;;14.63;;
75716;SDS011;64333;50.138;14.332;2024-02-26T12:12:17;23.40;;;13.45;;
75716;SDS011;64333;50.138;14.332;2024-02-26T12:15:01;28.10;;;15.13;;
75716;SDS011;64333;50.138;14.332;2024-02-26T12:17:27;27.08;;;14.55;;
75716;SDS011;64333;50.138;14.332;2024-02-26T12:19:52;25.33;;;14.00;;
75716;SDS011;64333;50.138;14.332;2024-02-26T12:22:18;25.95;;;13.65;;
75716;SDS011;64333;50.138;14.332;2024-02-26T12:24:44;25.67;;;14.23;;
75716;SDS011;64333;50.138;14.332;2024-02-26T12:27:10;28.83;;;14.93;;
75716;SDS011;64333;50.138;14.332;2024-02-26T12:29:35;26.38;;;15.10;;
75716;SDS011;64333;50.138;14.332;2024-02-26T12:32:01;25.58;;;15.25;;
75716;SDS011;64333;50.138;14.332;2024-02-26T12:34:28;25.35;;;13.98;;
75716;SDS011;64333;50.138;14.332;2024-02-26T12:36:53;26.00;;;14.18;;
75716;SDS011;64333;50.138;14.332;2024-02-26T12:39:19;26.15;;;14.77;;
75716;SDS011;64333;50.138;14.332;2024-02-26T12:41:45;35.38;;;19.95;;
75716;SDS011;64333;50.138;14.332;2024-02-26T12:44:14;29.90;;;16.50;;
75716;SDS011;64333;50.138;14.332;2024-02-26T12:46:41;26.05;;;14.88;;
75716;SDS011;64333;50.138;14.332;2024-02-26T12:49:06;27.52;;;14.65;;
75716;SDS011;64333;50.138;14.332;2024-02-26T12:51:33;24.83;;;14.20;;
75716;SDS011;64333;50.138;14.332;2024-02-26T12:53:58;29.02;;;16.30;;
75716;SDS011;64333;50.138;14.332;2024-02-26T12:56:24;29.45;;;17.25;;
75716;SDS011;64333;50.138;14.332;2024-02-26T12:58:51;31.45;;;16.17;;
75716;SDS011;64333;50.138;14.332;2024-02-26T13:01:17;29.23;;;16.15;;
75716;SDS011;64333;50.138;14.332;2024-02-26T13:03:47;28.90;;;16.33;;
75716;SDS011;64333;50.138;14.332;2024-02-26T13:06:14;28.00;;;15.98;;
75716;SDS011;64333;50.138;14.332;2024-02-26T13:08:40;24.55;;;14.88;;
75716;SDS011;64333;50.138;14.332;2024-02-26T13:11:05;26.98;;;14.82;;
75716;SDS011;64333;50.138;14.332;2024-02-26T13:13:31;25.70;;;14.18;;
75716;SDS011;64333;50.138;14.332;2024-02-26T13:16:03;26.90;;;15.45;;
75716;SDS011;64333;50.138;14.332;2024-02-26T13:18:30;26.25;;;13.88;;
75716;SDS011;64333;50.138;14.332;2024-02-26T13:21:06;25.83;;;14.63;;
75716;SDS011;64333;50.138;14.332;2024-02-26T13:23:40;23.50;;;13.95;;
75716;SDS011;64333;50.138;14.332;2024-02-26T13:26:05;24.95;;;14.30;;
75716;SDS011;64333;50.138;14.332;2024-02-26T13:28:31;28.52;;;13.90;;
75716;SDS011;64333;50.138;14.332;2024-02-26T13:30:57;24.70;;;14.07;;
75716;SDS011;64333;50.138;14.332;2024-02-26T13:33:24;24.58;;;13.45;;
75716;SDS011;64333;50.138;14.332;2024-02-26T13:35:51;27.13;;;14.18;;
75716;SDS011;64333;50.138;14.332;2024-02-26T13:38:17;23.50;;;14.63;;
75716;SDS011;64333;50.138;14.332;2024-02-26T13:40:43;22.27;;;12.20;;
75716;SDS011;64333;50.138;14.332;2024-02-26T13:43:09;20.80;;;12.90;;
75716;SDS011;64333;50.138;14.332;2024-02-26T13:45:35;22.48;;;12.65;;
75716;SDS011;64333;50.138;14.332;2024-02-26T13:48:02;22.77;;;13.38;;
75716;SDS011;64333;50.138;14.332;2024-02-26T13:50:28;22.70;;;14.57;;
75716;SDS011;64333;50.138;14.332;2024-02-26T13:52:54;24.60;;;13.98;;
75716;SDS011;64333;50.138;14.332;2024-02-26T13:55:21;22.70;;;13.57;;
75716;SDS011;64333;50.138;14.332;2024-02-26T13:57:48;22.10;;;13.35;;
75716;SDS011;64333;50.138;14.332;2024-02-26T14:00:14;23.52;;;14.05;;
75716;SDS011;64333;50.138;14.332;2024-02-26T14:02:39;23.13;;;13.18;;
75716;SDS011;64333;50.138;14.332;2024-02-26T14:05:05;20.23;;;13.00;;
75716;SDS011;64333;50.138;14.332;2024-02-26T14:07:30;23.02;;;14.60;;
75716;SDS011;64333;50.138;14.332;2024-02-26T14:09:59;24.40;;;13.40;;
75716;SDS011;64333;50.138;14.332;2024-02-26T14:12:24;25.25;;;14.63;;
75716;SDS011;64333;50.138;14.332;2024-02-26T14:14:50;22.85;;;13.80;;